sensor_id;sensor_type;location;lat;lon;timestamp;P1;durP1;ratioP1;P2;durP2;ratioP2
76409;SDS011;65238;42.662;23.280;2023-02-01T00:01:28;11.10;;;5.10;;
76409;SDS011;65238;42.662;23.280;2023-02-01T00:03:54;8.25;;;5.07;;
76409;SDS011;65238;42.662;23.280;2023-02-01T00:06:19;8.77;;;5.75;;
76409;SDS011;65238;42.662;23.280;2023-02-01T00:08:45;7.88;;;4.78;;
76409;SDS011;65238;42.662;23.280;2023-02-01T00:11:11;8.07;;;4.88;;
76409;SDS011;65238;42.662;23.280;2023-02-01T00:13:39;10.85;;;4.78;;
76409;SDS011;65238;42.662;23.280;2023-02-01T00:16:07;10.80;;;4.95;;
76409;SDS011;65238;42.662;23.280;2023-02-01T00:18:37;6.22;;;4.93;;
76409;SDS011;65238;42.662;23.280;2023-02-01T00:21:03;8.23;;;4.72;;
76409;SDS011;65238;42.662;23.280;2023-02-01T00:23:30;5.28;;;4.10;;
76409;SDS011;65238;42.662;23.280;2023-02-01T00:25:59;5.72;;;4.13;;
76409;SDS011;65238;42.662;23.280;2023-02-01T00:28:26;7.07;;;4.13;;
76409;SDS011;65238;42.662;23.280;2023-02-01T00:30:58;8.00;;;4.60;;
76409;SDS011;65238;42.662;23.280;2023-02-01T00:33:25;7.45;;;4.20;;
76409;SDS011;65238;42.662;23.280;2023-02-01T00:35:50;5.82;;;3.72;;
76409;SDS011;65238;42.662;23.280;2023-02-01T00:38:16;6.78;;;3.90;;
76409;SDS011;65238;42.662;23.280;2023-02-01T00:40:41;6.70;;;4.10;;
76409;SDS011;65238;42.662;23.280;2023-02-01T00:43:06;6.68;;;4.45;;
76409;SDS011;65238;42.662;23.280;2023-02-01T00:45:32;6.68;;;4.10;;
76409;SDS011;65238;42.662;23.280;2023-02-01T00:47:57;7.35;;;4.43;;
76409;SDS011;65238;42.662;23.280;2023-02-01T00:50:23;9.00;;;4.10;;
76409;SDS011;65238;42.662;23.280;2023-02-01T00:52:48;8.05;;;4.65;;
76409;SDS011;65238;42.662;23.280;2023-02-01T00:55:14;6.55;;;4.10;;
76409;SDS011;65238;42.662;23.280;2023-02-01T00:57:39;7.45;;;4.63;;
76409;SDS011;65238;42.662;23.280;2023-02-01T01:00:05;5.30;;;3.58;;
76409;SDS011;65238;42.662;23.280;2023-02-01T01:02:30;6.95;;;4.03;;
76409;SDS011;65238;42.662;23.280;2023-02-01T01:04:56;7.85;;;4.07;;
76409;SDS011;65238;42.662;23.280;2023-02-01T01:07:21;6.72;;;3.60;;
76409;SDS011;65238;42.662;23.280;2023-02-01T01:09:46;7.95;;;4.15;;
76409;SDS011;65238;42.662;23.280;2023-02-01T01:12:12;7.05;;;4.32;;
76409;SDS011;65238;42.662;23.280;2023-02-01T01:14:37;5.43;;;3.83;;
76409;SDS011;65238;42.662;23.280;2023-02-01T01:17:03;6.60;;;4.20;;
76409;SDS011;65238;42.662;23.280;2023-02-01T01:19:28;7.00;;;3.55;;
76409;SDS011;65238;42.662;23.280;2023-02-01T01:21:54;5.82;;;3.17;;
76409;SDS011;65238;42.662;23.280;2023-02-01T01:24:19;4.70;;;3.40;;
76409;SDS011;65238;42.662;23.280;2023-02-01T01:26:44;6.85;;;3.25;;
76409;SDS011;65238;42.662;23.280;2023-02-01T01:29:10;4.43;;;2.90;;
76409;SDS011;65238;42.662;23.280;2023-02-01T01:31:36;6.70;;;3.30;;
76409;SDS011;65238;42.662;23.280;2023-02-01T01:34:01;4.97;;;3.00;;
76409;SDS011;65238;42.662;23.280;2023-02-01T01:36:27;5.38;;;3.05;;
76409;SDS011;65238;42.662;23.280;2023-02-01T01:38:53;5.88;;;3.33;;
76409;SDS011;65238;42.662;23.280;2023-02-01T01:41:20;7.30;;;3.17;;
76409;SDS011;65238;42.662;23.280;2023-02-01T01:43:57;5.38;;;3.08;;
76409;SDS011;65238;42.662;23.280;2023-02-01T01:46:25;3.58;;;2.28;;
76409;SDS011;65238;42.662;23.280;2023-02-01T01:52:07;5.75;;;2.90;;
76409;SDS011;65238;42.662;23.280;2023-02-01T01:54:36;7.10;;;3.00;;
76409;SDS011;65238;42.662;23.280;2023-02-01T01:57:06;4.90;;;2.92;;
76409;SDS011;65238;42.662;23.280;2023-02-01T01:59:37;6.72;;;2.75;;
76409;SDS011;65238;42.662;23.280;2023-02-01T02:02:05;5.63;;;3.05;;
76409;SDS011;65238;42.662;23.280;2023-02-01T02:04:31;6.40;;;3.13;;
76409;SDS011;65238;42.662;23.280;2023-02-01T02:06:59;7.65;;;3.47;;
76409;SDS011;65238;42.662;23.280;2023-02-01T02:09:28;9.90;;;3.78;;
76409;SDS011;65238;42.662;23.280;2023-02-01T02:11:53;5.55;;;3.78;;
76409;SDS011;65238;42.662;23.280;2023-02-01T02:14:19;7.13;;;3.08;;
76409;SDS011;65238;42.662;23.280;2023-02-01T02:22:59;5.45;;;3.17;;
76409;SDS011;65238;42.662;23.280;2023-02-01T02:31:14;4.97;;;2.80;;
76409;SDS011;65238;42.662;23.280;2023-02-01T02:33:50;5.78;;;2.47;;
76409;SDS011;65238;42.662;23.280;2023-02-01T02:39:04;5.28;;;2.50;;
76409;SDS011;65238;42.662;23.280;2023-02-01T02:53:21;5.65;;;2.67;;
76409;SDS011;65238;42.662;23.280;2023-02-01T02:56:25;9.70;;;3.05;;
76409;SDS011;65238;42.662;23.280;2023-02-01T02:59:10;5.63;;;3.22;;
76409;SDS011;65238;42.662;23.280;2023-02-01T03:01:56;3.72;;;2.20;;
76409;SDS011;65238;42.662;23.280;2023-02-01T03:04:40;4.25;;;2.28;;
76409;SDS011;65238;42.662;23.280;2023-02-01T03:07:12;5.63;;;2.30;;
76409;SDS011;65238;42.662;23.280;2023-02-01T03:09:39;3.15;;;1.95;;
76409;SDS011;65238;42.662;23.280;2023-02-01T03:12:07;6.57;;;2.00;;
76409;SDS011;65238;42.662;23.280;2023-02-01T03:14:54;5.78;;;2.45;;
76409;SDS011;65238;42.662;23.280;2023-02-01T03:17:30;3.95;;;2.30;;
76409;SDS011;65238;42.662;23.280;2023-02-01T03:19:59;7.53;;;2.40;;
76409;SDS011;65238;42.662;23.280;2023-02-01T03:22:27;3.80;;;2.22;;
76409;SDS011;65238;42.662;23.280;2023-02-01T03:25:00;4.72;;;2.28;;
76409;SDS011;65238;42.662;23.280;2023-02-01T03:32:44;5.57;;;2.97;;
76409;SDS011;65238;42.662;23.280;2023-02-01T03:49:38;4.88;;;2.00;;
76409;SDS011;65238;42.662;23.280;2023-02-01T03:52:08;6.25;;;2.38;;
76409;SDS011;65238;42.662;23.280;2023-02-01T03:54:36;4.13;;;2.00;;
76409;SDS011;65238;42.662;23.280;2023-02-01T03:57:05;3.30;;;1.90;;
76409;SDS011;65238;42.662;23.280;2023-02-01T03:59:33;6.47;;;2.25;;
76409;SDS011;65238;42.662;23.280;2023-02-01T04:01:59;3.10;;;2.03;;
76409;SDS011;65238;42.662;23.280;2023-02-01T04:04:24;4.93;;;2.50;;
76409;SDS011;65238;42.662;23.280;2023-02-01T04:06:50;4.25;;;2.08;;
76409;SDS011;65238;42.662;23.280;2023-02-01T04:09:16;8.77;;;2.42;;
76409;SDS011;65238;42.662;23.280;2023-02-01T04:11:42;3.28;;;2.10;;
76409;SDS011;65238;42.662;23.280;2023-02-01T04:14:07;7.47;;;2.63;;
76409;SDS011;65238;42.662;23.280;2023-02-01T04:16:33;5.65;;;2.45;;
76409;SDS011;65238;42.662;23.280;2023-02-01T04:18:59;5.22;;;2.72;;
76409;SDS011;65238;42.662;23.280;2023-02-01T04:21:25;4.55;;;2.83;;
76409;SDS011;65238;42.662;23.280;2023-02-01T04:23:51;5.30;;;2.70;;
76409;SDS011;65238;42.662;23.280;2023-02-01T04:26:17;6.30;;;2.75;;
76409;SDS011;65238;42.662;23.280;2023-02-01T04:28:43;7.55;;;3.15;;
76409;SDS011;65238;42.662;23.280;2023-02-01T04:31:09;5.03;;;2.63;;
76409;SDS011;65238;42.662;23.280;2023-02-01T04:33:34;6.82;;;2.92;;
76409;SDS011;65238;42.662;23.280;2023-02-01T04:36:00;8.88;;;3.05;;
76409;SDS011;65238;42.662;23.280;2023-02-01T04:38:25;8.02;;;3.58;;
76409;SDS011;65238;42.662;23.280;2023-02-01T04:40:51;8.32;;;3.75;;
76409;SDS011;65238;42.662;23.280;2023-02-01T04:43:17;10.10;;;3.88;;
76409;SDS011;65238;42.662;23.280;2023-02-01T04:45:46;6.00;;;3.70;;
76409;SDS011;65238;42.662;23.280;2023-02-01T04:48:13;5.90;;;3.38;;
76409;SDS011;65238;42.662;23.280;2023-02-01T04:50:39;7.47;;;3.40;;
76409;SDS011;65238;42.662;23.280;2023-02-01T04:53:05;24.17;;;4.22;;
76409;SDS011;65238;42.662;23.280;2023-02-01T04:55:30;6.57;;;3.33;;
76409;SDS011;65238;42.662;23.280;2023-02-01T04:57:55;7.93;;;3.03;;
76409;SDS011;65238;42.662;23.280;2023-02-01T05:00:21;7.85;;;3.35;;
76409;SDS011;65238;42.662;23.280;2023-02-01T05:02:47;8.20;;;4.00;;
76409;SDS011;65238;42.662;23.280;2023-02-01T05:05:12;4.55;;;3.60;;
76409;SDS011;65238;42.662;23.280;2023-02-01T05:07:38;10.05;;;5.40;;
76409;SDS011;65238;42.662;23.280;2023-02-01T05:10:03;7.60;;;3.92;;
76409;SDS011;65238;42.662;23.280;2023-02-01T05:12:29;9.10;;;4.00;;
76409;SDS011;65238;42.662;23.280;2023-02-01T05:15:13;5.82;;;3.67;;
76409;SDS011;65238;42.662;23.280;2023-02-01T05:17:38;6.97;;;3.80;;
76409;SDS011;65238;42.662;23.280;2023-02-01T05:20:05;8.52;;;4.32;;
76409;SDS011;65238;42.662;23.280;2023-02-01T05:22:32;7.30;;;4.40;;
76409;SDS011;65238;42.662;23.280;2023-02-01T05:24:57;9.05;;;4.13;;
76409;SDS011;65238;42.662;23.280;2023-02-01T05:27:23;5.97;;;4.22;;
76409;SDS011;65238;42.662;23.280;2023-02-01T05:29:48;9.38;;;4.20;;
76409;SDS011;65238;42.662;23.280;2023-02-01T05:32:14;7.95;;;4.38;;
76409;SDS011;65238;42.662;23.280;2023-02-01T05:34:42;9.10;;;5.03;;
76409;SDS011;65238;42.662;23.280;2023-02-01T05:37:07;10.68;;;5.30;;
76409;SDS011;65238;42.662;23.280;2023-02-01T05:39:33;10.75;;;5.60;;
76409;SDS011;65238;42.662;23.280;2023-02-01T05:41:58;8.55;;;4.32;;
76409;SDS011;65238;42.662;23.280;2023-02-01T05:44:24;8.82;;;4.25;;
76409;SDS011;65238;42.662;23.280;2023-02-01T05:46:49;8.85;;;4.72;;
76409;SDS011;65238;42.662;23.280;2023-02-01T05:49:17;6.68;;;4.20;;
76409;SDS011;65238;42.662;23.280;2023-02-01T05:51:42;7.07;;;3.63;;
76409;SDS011;65238;42.662;23.280;2023-02-01T05:54:08;6.15;;;4.05;;
76409;SDS011;65238;42.662;23.280;2023-02-01T05:56:33;9.98;;;4.75;;
76409;SDS011;65238;42.662;23.280;2023-02-01T05:58:59;7.93;;;4.40;;
76409;SDS011;65238;42.662;23.280;2023-02-01T06:01:24;6.22;;;4.05;;
76409;SDS011;65238;42.662;23.280;2023-02-01T06:03:50;9.48;;;4.80;;
76409;SDS011;65238;42.662;23.280;2023-02-01T06:06:15;10.63;;;4.75;;
76409;SDS011;65238;42.662;23.280;2023-02-01T06:08:41;12.07;;;5.60;;
76409;SDS011;65238;42.662;23.280;2023-02-01T06:11:06;10.48;;;4.70;;
76409;SDS011;65238;42.662;23.280;2023-02-01T06:13:32;11.10;;;5.10;;
76409;SDS011;65238;42.662;23.280;2023-02-01T06:15:57;11.25;;;5.03;;
76409;SDS011;65238;42.662;23.280;2023-02-01T06:18:23;13.23;;;5.72;;
76409;SDS011;65238;42.662;23.280;2023-02-01T06:20:53;12.75;;;5.63;;
76409;SDS011;65238;42.662;23.280;2023-02-01T06:23:22;8.70;;;4.95;;
76409;SDS011;65238;42.662;23.280;2023-02-01T06:25:52;16.63;;;5.50;;
76409;SDS011;65238;42.662;23.280;2023-02-01T06:28:23;11.70;;;4.78;;
76409;SDS011;65238;42.662;23.280;2023-02-01T06:30:49;10.32;;;4.85;;
76409;SDS011;65238;42.662;23.280;2023-02-01T06:33:14;12.35;;;6.13;;
76409;SDS011;65238;42.662;23.280;2023-02-01T06:35:43;11.23;;;4.78;;
76409;SDS011;65238;42.662;23.280;2023-02-01T06:38:12;14.68;;;4.97;;
76409;SDS011;65238;42.662;23.280;2023-02-01T06:40:38;15.75;;;5.47;;
76409;SDS011;65238;42.662;23.280;2023-02-01T06:43:04;10.52;;;4.25;;
76409;SDS011;65238;42.662;23.280;2023-02-01T06:45:30;12.02;;;4.32;;
76409;SDS011;65238;42.662;23.280;2023-02-01T06:47:59;7.32;;;3.88;;
76409;SDS011;65238;42.662;23.280;2023-02-01T06:50:26;11.95;;;4.40;;
76409;SDS011;65238;42.662;23.280;2023-02-01T06:52:51;10.45;;;3.78;;
76409;SDS011;65238;42.662;23.280;2023-02-01T06:55:17;8.88;;;4.00;;
76409;SDS011;65238;42.662;23.280;2023-02-01T06:57:42;11.45;;;4.00;;
76409;SDS011;65238;42.662;23.280;2023-02-01T07:00:08;6.65;;;2.97;;
76409;SDS011;65238;42.662;23.280;2023-02-01T07:02:34;6.22;;;3.25;;
76409;SDS011;65238;42.662;23.280;2023-02-01T07:04:59;9.73;;;3.90;;
76409;SDS011;65238;42.662;23.280;2023-02-01T07:07:25;7.38;;;3.50;;
76409;SDS011;65238;42.662;23.280;2023-02-01T07:09:50;6.85;;;3.28;;
76409;SDS011;65238;42.662;23.280;2023-02-01T07:12:16;11.65;;;3.65;;
76409;SDS011;65238;42.662;23.280;2023-02-01T07:14:41;8.00;;;3.95;;
76409;SDS011;65238;42.662;23.280;2023-02-01T07:17:07;7.03;;;3.28;;
76409;SDS011;65238;42.662;23.280;2023-02-01T07:19:32;8.43;;;3.03;;
76409;SDS011;65238;42.662;23.280;2023-02-01T07:21:58;7.57;;;3.13;;
76409;SDS011;65238;42.662;23.280;2023-02-01T07:24:23;9.98;;;3.20;;
76409;SDS011;65238;42.662;23.280;2023-02-01T07:26:48;8.45;;;3.00;;
76409;SDS011;65238;42.662;23.280;2023-02-01T07:29:16;9.15;;;2.70;;
76409;SDS011;65238;42.662;23.280;2023-02-01T07:31:42;4.53;;;2.40;;
76409;SDS011;65238;42.662;23.280;2023-02-01T07:34:07;6.47;;;2.72;;
76409;SDS011;65238;42.662;23.280;2023-02-01T07:36:33;8.45;;;2.72;;
76409;SDS011;65238;42.662;23.280;2023-02-01T07:38:59;9.65;;;4.10;;
76409;SDS011;65238;42.662;23.280;2023-02-01T07:41:25;11.02;;;3.30;;
76409;SDS011;65238;42.662;23.280;2023-02-01T07:43:53;7.22;;;3.20;;
76409;SDS011;65238;42.662;23.280;2023-02-01T07:46:21;7.53;;;3.10;;
76409;SDS011;65238;42.662;23.280;2023-02-01T07:48:46;6.78;;;3.22;;
76409;SDS011;65238;42.662;23.280;2023-02-01T07:51:13;11.15;;;3.80;;
76409;SDS011;65238;42.662;23.280;2023-02-01T07:53:40;6.55;;;3.53;;
76409;SDS011;65238;42.662;23.280;2023-02-01T07:56:15;6.95;;;3.55;;
76409;SDS011;65238;42.662;23.280;2023-02-01T07:58:42;7.10;;;2.90;;
76409;SDS011;65238;42.662;23.280;2023-02-01T08:01:13;6.43;;;2.70;;
76409;SDS011;65238;42.662;23.280;2023-02-01T08:03:46;7.88;;;2.90;;
76409;SDS011;65238;42.662;23.280;2023-02-01T08:06:27;12.70;;;4.10;;
76409;SDS011;65238;42.662;23.280;2023-02-01T08:08:54;12.30;;;3.40;;
76409;SDS011;65238;42.662;23.280;2023-02-01T08:11:20;7.85;;;3.30;;
76409;SDS011;65238;42.662;23.280;2023-02-01T08:13:47;8.98;;;3.58;;
76409;SDS011;65238;42.662;23.280;2023-02-01T08:16:14;8.32;;;3.40;;
76409;SDS011;65238;42.662;23.280;2023-02-01T08:18:40;9.00;;;4.10;;
76409;SDS011;65238;42.662;23.280;2023-02-01T08:21:10;13.13;;;3.75;;
76409;SDS011;65238;42.662;23.280;2023-02-01T08:23:37;7.85;;;3.65;;
76409;SDS011;65238;42.662;23.280;2023-02-01T08:28:40;11.27;;;4.40;;
76409;SDS011;65238;42.662;23.280;2023-02-01T08:31:11;8.38;;;3.92;;
76409;SDS011;65238;42.662;23.280;2023-02-01T08:33:39;10.32;;;3.63;;
76409;SDS011;65238;42.662;23.280;2023-02-01T08:36:06;13.82;;;4.03;;
76409;SDS011;65238;42.662;23.280;2023-02-01T08:38:32;8.95;;;3.92;;
76409;SDS011;65238;42.662;23.280;2023-02-01T08:40:57;10.82;;;3.65;;
76409;SDS011;65238;42.662;23.280;2023-02-01T08:43:23;9.13;;;4.00;;
76409;SDS011;65238;42.662;23.280;2023-02-01T08:45:49;10.57;;;4.20;;
76409;SDS011;65238;42.662;23.280;2023-02-01T08:48:15;7.22;;;3.80;;
76409;SDS011;65238;42.662;23.280;2023-02-01T08:50:41;13.80;;;3.25;;
76409;SDS011;65238;42.662;23.280;2023-02-01T08:53:06;6.65;;;3.50;;
76409;SDS011;65238;42.662;23.280;2023-02-01T08:55:31;11.05;;;4.68;;
76409;SDS011;65238;42.662;23.280;2023-02-01T08:57:57;8.60;;;3.55;;
76409;SDS011;65238;42.662;23.280;2023-02-01T09:00:22;9.20;;;4.03;;
76409;SDS011;65238;42.662;23.280;2023-02-01T09:02:48;8.90;;;4.32;;
76409;SDS011;65238;42.662;23.280;2023-02-01T09:05:13;9.80;;;3.63;;
76409;SDS011;65238;42.662;23.280;2023-02-01T09:07:47;9.88;;;3.60;;
76409;SDS011;65238;42.662;23.280;2023-02-01T09:10:44;5.93;;;3.58;;
76409;SDS011;65238;42.662;23.280;2023-02-01T09:13:13;8.98;;;2.65;;
76409;SDS011;65238;42.662;23.280;2023-02-01T09:15:38;6.82;;;2.60;;
76409;SDS011;65238;42.662;23.280;2023-02-01T09:18:04;7.85;;;2.90;;
76409;SDS011;65238;42.662;23.280;2023-02-01T09:20:29;9.52;;;2.97;;
76409;SDS011;65238;42.662;23.280;2023-02-01T09:22:55;6.53;;;2.30;;
76409;SDS011;65238;42.662;23.280;2023-02-01T09:25:21;8.18;;;2.53;;
76409;SDS011;65238;42.662;23.280;2023-02-01T09:27:46;4.03;;;2.08;;
76409;SDS011;65238;42.662;23.280;2023-02-01T09:30:12;4.95;;;2.40;;
76409;SDS011;65238;42.662;23.280;2023-02-01T09:32:40;4.47;;;2.08;;
76409;SDS011;65238;42.662;23.280;2023-02-01T09:35:06;5.55;;;2.22;;
76409;SDS011;65238;42.662;23.280;2023-02-01T09:37:33;9.15;;;2.75;;
76409;SDS011;65238;42.662;23.280;2023-02-01T09:39:59;5.75;;;2.65;;
76409;SDS011;65238;42.662;23.280;2023-02-01T09:47:43;8.15;;;3.33;;
76409;SDS011;65238;42.662;23.280;2023-02-01T09:50:19;6.72;;;3.03;;
76409;SDS011;65238;42.662;23.280;2023-02-01T09:53:25;6.78;;;2.90;;
76409;SDS011;65238;42.662;23.280;2023-02-01T10:01:20;6.65;;;2.35;;
76409;SDS011;65238;42.662;23.280;2023-02-01T10:03:49;7.95;;;2.88;;
76409;SDS011;65238;42.662;23.280;2023-02-01T10:06:24;7.80;;;3.08;;
76409;SDS011;65238;42.662;23.280;2023-02-01T10:17:30;9.02;;;2.92;;
76409;SDS011;65238;42.662;23.280;2023-02-01T10:25:30;7.28;;;2.50;;
76409;SDS011;65238;42.662;23.280;2023-02-01T10:28:16;4.13;;;2.00;;
76409;SDS011;65238;42.662;23.280;2023-02-01T10:30:43;3.88;;;2.25;;
76409;SDS011;65238;42.662;23.280;2023-02-01T10:33:17;5.32;;;2.22;;
76409;SDS011;65238;42.662;23.280;2023-02-01T10:35:47;8.48;;;2.17;;
76409;SDS011;65238;42.662;23.280;2023-02-01T10:38:24;6.35;;;2.50;;
76409;SDS011;65238;42.662;23.280;2023-02-01T10:40:52;7.45;;;2.80;;
76409;SDS011;65238;42.662;23.280;2023-02-01T10:43:27;4.10;;;2.10;;
76409;SDS011;65238;42.662;23.280;2023-02-01T10:45:53;5.15;;;2.65;;
76409;SDS011;65238;42.662;23.280;2023-02-01T10:48:18;9.18;;;3.40;;
76409;SDS011;65238;42.662;23.280;2023-02-01T10:50:54;5.60;;;2.22;;
76409;SDS011;65238;42.662;23.280;2023-02-01T10:55:57;7.95;;;3.42;;
76409;SDS011;65238;42.662;23.280;2023-02-01T10:58:32;9.10;;;3.70;;
76409;SDS011;65238;42.662;23.280;2023-02-01T11:01:00;8.80;;;3.85;;
76409;SDS011;65238;42.662;23.280;2023-02-01T11:08:54;9.93;;;3.17;;
76409;SDS011;65238;42.662;23.280;2023-02-01T11:11:23;7.93;;;2.70;;
76409;SDS011;65238;42.662;23.280;2023-02-01T11:13:53;5.60;;;2.28;;
76409;SDS011;65238;42.662;23.280;2023-02-01T11:16:20;8.03;;;2.10;;
76409;SDS011;65238;42.662;23.280;2023-02-01T11:18:45;8.27;;;2.92;;
76409;SDS011;65238;42.662;23.280;2023-02-01T11:21:18;5.55;;;1.92;;
76409;SDS011;65238;42.662;23.280;2023-02-01T11:23:44;7.25;;;2.50;;
76409;SDS011;65238;42.662;23.280;2023-02-01T11:28:57;5.70;;;2.25;;
76409;SDS011;65238;42.662;23.280;2023-02-01T11:31:25;6.55;;;2.70;;
76409;SDS011;65238;42.662;23.280;2023-02-01T11:33:52;8.07;;;3.00;;
76409;SDS011;65238;42.662;23.280;2023-02-01T11:36:24;6.63;;;2.42;;
76409;SDS011;65238;42.662;23.280;2023-02-01T11:39:06;5.82;;;2.60;;
76409;SDS011;65238;42.662;23.280;2023-02-01T11:41:43;4.07;;;2.05;;
76409;SDS011;65238;42.662;23.280;2023-02-01T11:44:22;5.97;;;2.22;;
76409;SDS011;65238;42.662;23.280;2023-02-01T11:49:51;4.15;;;2.20;;
76409;SDS011;65238;42.662;23.280;2023-02-01T12:01:18;6.70;;;2.92;;
76409;SDS011;65238;42.662;23.280;2023-02-01T12:03:53;5.18;;;2.10;;
76409;SDS011;65238;42.662;23.280;2023-02-01T12:17:17;6.70;;;2.00;;
76409;SDS011;65238;42.662;23.280;2023-02-01T12:28:31;3.47;;;1.75;;
76409;SDS011;65238;42.662;23.280;2023-02-01T12:39:31;6.18;;;2.65;;
76409;SDS011;65238;42.662;23.280;2023-02-01T12:42:09;5.00;;;2.40;;
76409;SDS011;65238;42.662;23.280;2023-02-01T12:49:42;6.25;;;2.33;;
76409;SDS011;65238;42.662;23.280;2023-02-01T12:58:08;3.63;;;2.13;;
76409;SDS011;65238;42.662;23.280;2023-02-01T13:00:38;4.72;;;2.17;;
76409;SDS011;65238;42.662;23.280;2023-02-01T13:03:16;4.80;;;2.00;;
76409;SDS011;65238;42.662;23.280;2023-02-01T13:05:50;6.25;;;2.30;;
76409;SDS011;65238;42.662;23.280;2023-02-01T13:08:17;4.55;;;2.25;;
76409;SDS011;65238;42.662;23.280;2023-02-01T13:13:48;6.45;;;2.20;;
76409;SDS011;65238;42.662;23.280;2023-02-01T13:16:34;4.13;;;2.30;;
76409;SDS011;65238;42.662;23.280;2023-02-01T13:21:40;2.97;;;1.52;;
76409;SDS011;65238;42.662;23.280;2023-02-01T13:24:42;6.07;;;2.28;;
76409;SDS011;65238;42.662;23.280;2023-02-01T13:27:23;2.67;;;1.50;;
76409;SDS011;65238;42.662;23.280;2023-02-01T13:29:55;11.77;;;3.42;;
76409;SDS011;65238;42.662;23.280;2023-02-01T13:41:56;4.38;;;1.90;;
76409;SDS011;65238;42.662;23.280;2023-02-01T13:44:28;5.72;;;1.90;;
76409;SDS011;65238;42.662;23.280;2023-02-01T13:46:57;6.43;;;2.08;;
76409;SDS011;65238;42.662;23.280;2023-02-01T13:49:26;4.63;;;2.03;;
76409;SDS011;65238;42.662;23.280;2023-02-01T13:51:54;3.55;;;1.60;;
76409;SDS011;65238;42.662;23.280;2023-02-01T13:54:26;3.90;;;2.03;;
76409;SDS011;65238;42.662;23.280;2023-02-01T13:57:02;4.00;;;1.88;;
76409;SDS011;65238;42.662;23.280;2023-02-01T13:59:46;3.83;;;1.88;;
76409;SDS011;65238;42.662;23.280;2023-02-01T14:05:09;6.15;;;2.30;;
76409;SDS011;65238;42.662;23.280;2023-02-01T14:07:36;6.28;;;2.10;;
76409;SDS011;65238;42.662;23.280;2023-02-01T14:13:11;3.88;;;1.80;;
76409;SDS011;65238;42.662;23.280;2023-02-01T14:15:38;4.13;;;1.90;;
76409;SDS011;65238;42.662;23.280;2023-02-01T14:23:54;7.03;;;2.88;;
76409;SDS011;65238;42.662;23.280;2023-02-01T14:26:44;4.32;;;2.40;;
76409;SDS011;65238;42.662;23.280;2023-02-01T14:32:23;5.15;;;2.00;;
76409;SDS011;65238;42.662;23.280;2023-02-01T14:34:32;3.47;;;2.08;;
76409;SDS011;65238;42.662;23.280;2023-02-01T14:37:32;3.30;;;1.80;;
76409;SDS011;65238;42.662;23.280;2023-02-01T14:40:04;6.78;;;2.28;;
76409;SDS011;65238;42.662;23.280;2023-02-01T14:42:50;3.93;;;2.33;;
76409;SDS011;65238;42.662;23.280;2023-02-01T14:55:40;4.63;;;2.40;;
76409;SDS011;65238;42.662;23.280;2023-02-01T15:01:49;6.95;;;2.97;;
76409;SDS011;65238;42.662;23.280;2023-02-01T15:04:17;9.05;;;3.13;;
76409;SDS011;65238;42.662;23.280;2023-02-01T15:06:57;10.77;;;3.33;;
76409;SDS011;65238;42.662;23.280;2023-02-01T15:12:13;6.07;;;2.90;;
76409;SDS011;65238;42.662;23.280;2023-02-01T15:17:40;7.30;;;3.45;;
76409;SDS011;65238;42.662;23.280;2023-02-01T15:25:03;16.58;;;6.20;;
76409;SDS011;65238;42.662;23.280;2023-02-01T15:27:28;10.75;;;4.80;;
76409;SDS011;65238;42.662;23.280;2023-02-01T15:30:04;8.07;;;3.97;;
76409;SDS011;65238;42.662;23.280;2023-02-01T15:32:35;7.55;;;3.03;;
76409;SDS011;65238;42.662;23.280;2023-02-01T15:35:03;5.95;;;3.00;;
76409;SDS011;65238;42.662;23.280;2023-02-01T15:37:29;9.77;;;3.17;;
76409;SDS011;65238;42.662;23.280;2023-02-01T15:40:03;7.55;;;2.90;;
76409;SDS011;65238;42.662;23.280;2023-02-01T15:42:40;5.50;;;2.92;;
76409;SDS011;65238;42.662;23.280;2023-02-01T15:45:19;5.97;;;3.17;;
76409;SDS011;65238;42.662;23.280;2023-02-01T15:47:47;8.25;;;3.67;;
76409;SDS011;65238;42.662;23.280;2023-02-01T15:50:18;6.65;;;3.80;;
76409;SDS011;65238;42.662;23.280;2023-02-01T15:52:47;9.23;;;4.40;;
76409;SDS011;65238;42.662;23.280;2023-02-01T15:57:43;6.38;;;2.88;;
76409;SDS011;65238;42.662;23.280;2023-02-01T16:02:54;6.45;;;2.60;;
76409;SDS011;65238;42.662;23.280;2023-02-01T16:08:00;4.55;;;2.50;;
76409;SDS011;65238;42.662;23.280;2023-02-01T16:10:30;6.97;;;2.92;;
76409;SDS011;65238;42.662;23.280;2023-02-01T16:12:56;4.45;;;2.35;;
76409;SDS011;65238;42.662;23.280;2023-02-01T16:15:25;6.65;;;3.45;;
76409;SDS011;65238;42.662;23.280;2023-02-01T16:17:54;7.28;;;2.58;;
76409;SDS011;65238;42.662;23.280;2023-02-01T16:20:19;9.60;;;2.47;;
76409;SDS011;65238;42.662;23.280;2023-02-01T16:22:45;8.68;;;2.63;;
76409;SDS011;65238;42.662;23.280;2023-02-01T16:25:10;7.30;;;3.10;;
76409;SDS011;65238;42.662;23.280;2023-02-01T16:27:36;9.05;;;3.78;;
76409;SDS011;65238;42.662;23.280;2023-02-01T16:30:02;7.88;;;3.38;;
76409;SDS011;65238;42.662;23.280;2023-02-01T16:32:27;7.63;;;3.13;;
76409;SDS011;65238;42.662;23.280;2023-02-01T16:34:53;4.70;;;2.50;;
76409;SDS011;65238;42.662;23.280;2023-02-01T16:37:19;5.50;;;2.97;;
76409;SDS011;65238;42.662;23.280;2023-02-01T16:39:46;9.57;;;3.20;;
76409;SDS011;65238;42.662;23.280;2023-02-01T16:42:12;7.15;;;3.50;;
76409;SDS011;65238;42.662;23.280;2023-02-01T16:44:38;6.15;;;2.88;;
76409;SDS011;65238;42.662;23.280;2023-02-01T16:47:09;9.57;;;2.72;;
76409;SDS011;65238;42.662;23.280;2023-02-01T16:49:37;6.10;;;3.00;;
76409;SDS011;65238;42.662;23.280;2023-02-01T16:52:05;10.10;;;5.55;;
76409;SDS011;65238;42.662;23.280;2023-02-01T16:54:33;9.30;;;5.53;;
76409;SDS011;65238;42.662;23.280;2023-02-01T16:56:59;11.70;;;3.35;;
76409;SDS011;65238;42.662;23.280;2023-02-01T16:59:24;6.03;;;2.97;;
76409;SDS011;65238;42.662;23.280;2023-02-01T17:01:50;8.05;;;3.75;;
76409;SDS011;65238;42.662;23.280;2023-02-01T17:04:16;9.48;;;3.92;;
76409;SDS011;65238;42.662;23.280;2023-02-01T17:06:42;8.38;;;4.15;;
76409;SDS011;65238;42.662;23.280;2023-02-01T17:09:12;10.65;;;5.68;;
76409;SDS011;65238;42.662;23.280;2023-02-01T17:11:37;12.93;;;6.68;;
76409;SDS011;65238;42.662;23.280;2023-02-01T17:14:16;12.23;;;6.72;;
76409;SDS011;65238;42.662;23.280;2023-02-01T17:16:44;12.95;;;5.65;;
76409;SDS011;65238;42.662;23.280;2023-02-01T17:19:15;9.30;;;4.95;;
76409;SDS011;65238;42.662;23.280;2023-02-01T17:21:44;10.93;;;4.63;;
76409;SDS011;65238;42.662;23.280;2023-02-01T17:26:40;7.82;;;4.13;;
76409;SDS011;65238;42.662;23.280;2023-02-01T17:29:06;9.77;;;3.75;;
76409;SDS011;65238;42.662;23.280;2023-02-01T17:31:33;12.27;;;4.57;;
76409;SDS011;65238;42.662;23.280;2023-02-01T17:34:01;11.32;;;4.45;;
76409;SDS011;65238;42.662;23.280;2023-02-01T17:36:27;8.35;;;4.30;;
76409;SDS011;65238;42.662;23.280;2023-02-01T17:38:52;9.02;;;4.10;;
76409;SDS011;65238;42.662;23.280;2023-02-01T17:41:18;7.72;;;3.95;;
76409;SDS011;65238;42.662;23.280;2023-02-01T17:43:43;8.23;;;3.70;;
76409;SDS011;65238;42.662;23.280;2023-02-01T17:46:13;5.75;;;2.97;;
76409;SDS011;65238;42.662;23.280;2023-02-01T17:48:40;6.15;;;3.35;;
76409;SDS011;65238;42.662;23.280;2023-02-01T17:51:17;5.53;;;2.90;;
76409;SDS011;65238;42.662;23.280;2023-02-01T17:53:47;4.70;;;2.67;;
76409;SDS011;65238;42.662;23.280;2023-02-01T17:56:14;7.38;;;3.60;;
76409;SDS011;65238;42.662;23.280;2023-02-01T17:58:47;8.48;;;3.55;;
76409;SDS011;65238;42.662;23.280;2023-02-01T18:01:22;7.25;;;3.88;;
76409;SDS011;65238;42.662;23.280;2023-02-01T18:03:49;10.13;;;3.60;;
76409;SDS011;65238;42.662;23.280;2023-02-01T18:06:18;9.40;;;3.83;;